sensor_id;sensor_type;location;lat;lon;timestamp;pressure;altitude;pressure_sealevel;temperature;humidity
65151;BME280;51918;51.856;0.150;2023-05-10T00:00:32;100064.81;;;11.80;94.28
65151;BME280;51918;51.856;0.150;2023-05-10T00:05:33;100074.88;;;11.75;93.80
65151;BME280;51918;51.856;0.150;2023-05-10T00:10:35;100073.63;;;11.70;94.38
65151;BME280;51918;51.856;0.150;2023-05-10T00:15:36;100069.63;;;11.68;95.07
65151;BME280;51918;51.856;0.150;2023-05-10T00:20:36;100070.00;;;11.65;95.15
65151;BME280;51918;51.856;0.150;2023-05-10T00:25:38;100073.56;;;11.64;95.26
65151;BME280;51918;51.856;0.150;2023-05-10T00:30:39;100072.31;;;11.60;95.31
65151;BME280;51918;51.856;0.150;2023-05-10T00:35:39;100059.78;;;11.57;95.48
65151;BME280;51918;51.856;0.150;2023-05-10T00:40:42;100064.84;;;11.50;95.89
65151;BME280;51918;51.856;0.150;2023-05-10T00:45:43;100066.63;;;11.49;96.07
65151;BME280;51918;51.856;0.150;2023-05-10T00:50:44;100061.66;;;11.48;96.60
65151;BME280;51918;51.856;0.150;2023-05-10T00:55:46;100071.31;;;11.46;96.46
65151;BME280;51918;51.856;0.150;2023-05-10T01:00:47;100077.63;;;11.43;96.81
65151;BME280;51918;51.856;0.150;2023-05-10T01:05:48;100080.38;;;11.42;96.95
65151;BME280;51918;51.856;0.150;2023-05-10T01:10:50;100081.53;;;11.39;97.52
65151;BME280;51918;51.856;0.150;2023-05-10T01:15:51;100086.53;;;11.41;97.21
65151;BME280;51918;51.856;0.150;2023-05-10T01:20:59;100086.69;;;11.39;97.14
65151;BME280;51918;51.856;0.150;2023-05-10T01:26:19;100088.22;;;11.34;97.36
65151;BME280;51918;51.856;0.150;2023-05-10T01:31:33;100088.38;;;11.32;97.58
65151;BME280;51918;51.856;0.150;2023-05-10T01:36:46;100096.78;;;11.26;97.59
65151;BME280;51918;51.856;0.150;2023-05-10T01:41:52;100087.19;;;11.20;98.34
65151;BME280;51918;51.856;0.150;2023-05-10T01:46:59;100088.25;;;11.10;99.70
65151;BME280;51918;51.856;0.150;2023-05-10T01:52:06;100094.81;;;11.13;100.00
65151;BME280;51918;51.856;0.150;2023-05-10T01:57:10;100096.94;;;11.09;100.00
65151;BME280;51918;51.856;0.150;2023-05-10T02:02:12;100101.66;;;11.06;100.00
65151;BME280;51918;51.856;0.150;2023-05-10T02:07:16;100104.84;;;11.08;100.00
65151;BME280;51918;51.856;0.150;2023-05-10T02:12:18;100111.06;;;11.14;100.00
65151;BME280;51918;51.856;0.150;2023-05-10T02:17:21;100108.16;;;11.17;100.00
65151;BME280;51918;51.856;0.150;2023-05-10T02:22:25;100115.34;;;11.21;100.00
65151;BME280;51918;51.856;0.150;2023-05-10T02:27:27;100109.41;;;11.21;100.00
65151;BME280;51918;51.856;0.150;2023-05-10T02:32:29;100124.84;;;11.21;100.00
65151;BME280;51918;51.856;0.150;2023-05-10T02:37:33;100132.22;;;11.24;100.00
65151;BME280;51918;51.856;0.150;2023-05-10T02:42:36;100132.91;;;11.18;100.00
65151;BME280;51918;51.856;0.150;2023-05-10T02:47:38;100138.69;;;11.20;100.00
65151;BME280;51918;51.856;0.150;2023-05-10T02:52:44;100142.25;;;11.19;99.71
65151;BME280;51918;51.856;0.150;2023-05-10T02:57:49;100154.38;;;11.10;98.92
65151;BME280;51918;51.856;0.150;2023-05-10T03:02:51;100148.78;;;11.06;98.82
65151;BME280;51918;51.856;0.150;2023-05-10T03:07:54;100145.91;;;11.01;98.27
65151;BME280;51918;51.856;0.150;2023-05-10T03:13:07;100169.84;;;10.87;97.83
65151;BME280;51918;51.856;0.150;2023-05-10T03:18:16;100162.63;;;10.82;97.92
65151;BME280;51918;51.856;0.150;2023-05-10T03:23:26;100162.56;;;10.67;97.82
65151;BME280;51918;51.856;0.150;2023-05-10T03:28:27;100154.75;;;10.61;97.82
65151;BME280;51918;51.856;0.150;2023-05-10T03:33:28;100164.94;;;10.46;98.42
65151;BME280;51918;51.856;0.150;2023-05-10T03:38:31;100162.38;;;10.46;97.73
65151;BME280;51918;51.856;0.150;2023-05-10T03:43:31;100168.03;;;10.41;97.50
65151;BME280;51918;51.856;0.150;2023-05-10T03:48:32;100174.00;;;10.34;97.11
65151;BME280;51918;51.856;0.150;2023-05-10T03:53:34;100171.66;;;10.24;97.13
65151;BME280;51918;51.856;0.150;2023-05-10T03:58:35;100171.56;;;10.09;97.20
65151;BME280;51918;51.856;0.150;2023-05-10T04:03:35;100178.16;;;10.03;97.06
65151;BME280;51918;51.856;0.150;2023-05-10T04:08:37;100177.09;;;9.90;96.83
65151;BME280;51918;51.856;0.150;2023-05-10T04:13:38;100176.28;;;9.81;97.27
65151;BME280;51918;51.856;0.150;2023-05-10T04:18:40;100176.94;;;9.66;97.42
65151;BME280;51918;51.856;0.150;2023-05-10T04:23:42;100180.31;;;9.67;97.89
65151;BME280;51918;51.856;0.150;2023-05-10T04:28:43;100177.13;;;9.57;97.05
